Wichita, KS (67226)

3:32 PM CST on December 17, 2014 (GMT -0600)
Shockerville | Change Station
CLOSE
Current Station
Personal Weather Station
Location: Wichita, KS
Elevation: 1421 ft
Nearby Weather Stations
Active Advisory: Winter Weather Advisory

Elev 1421 ft 37.73 °N, 97.24 °W | Updated 8 seconds ago

Overcast
Overcast
30.7 °F
Feels Like 31 °F
N
0.0
Wind Variable Wind from SSE
Gusts 0.0 mph

Today
High -- | Low -- °F
--% Chance of Precip.
Yesterday
High -- | Low -- °F
Precip. -- in
7:38 AM 5:11 PM
Waning Crescent, 19% visible
Pressure 30.23 in
Visibility 10.0 miles
Clouds Mostly Cloudy 5000 ft
Overcast 6000 ft
Windchill 31 °F
Dew Point 25 °F
Humidity 80%
Rainfall 0.00 in
Snow Depth Not available.
UV 0 out of 12
Pollen .10 out of 12
Air Quality Not available.
Flu Activity Not available.
METAR KAAO 172054Z AUTO 14005KT 10SM BKN050 OVC060 00/M04 A3019 RMK AO2 SLP237 T00001039 55018

More Conditions Fewer Conditions

Pressure 30.23 in
Visibility 10.0 miles
Clouds Mostly Cloudy 5000 ft
Overcast 6000 ft
Windchill 31 °F
Dew Point 25 °F
Humidity 80%
Rainfall 0.00 in
Snow Depth Not available.
UV 0 out of 12
Pollen .10 out of 12
Air Quality Not available.
Flu Activity Not available.
METAR KAAO 172054Z AUTO 14005KT 10SM BKN050 OVC060 00/M04 A3019 RMK AO2 SLP237 T00001039 55018

More Conditions Fewer Conditions

10-Day Weather Forecast

Almanac

Astronomy

Dec. 17, 2014 Rise Set
Actual Time
Civil Twilight
Nautical Twilight
Astronomical Twilight
Moon
Length of Visible Light
Length of Day
Tomorrow will be .
, % of the Moon is Illuminated

Today's Extremes

State Highs State Lows

Community

WunderPhotos

Upload Photos

1,778,807 photos uploaded!

WunderBlogs® & News

Nearby

Air Quality

  Air Quality AQ Index Pollutant
Not available.

Snow Depth

Station Depth Elevation

Earthquake Activity

City Distance Mag. Time & Date
Minimum magnitude displayed is 2.5.

Coastal Water Temperatures

Place Temperature

Nearby Weather Stations